SLLP Airport Information

Runway Information
Runway 10 Length 13123 ft width 151 ft
Elevation 13110 ft Threshold 0 ft Heading 92
Runway 28 Length 13123 ft Width 151 ft
Elevation 13314 ft Threshold 0 ft Heading 272
Runway 10L Length 6725 ft width 300 ft
Elevation 13202 ft Threshold 0 ft Heading 98
Runway 28R Length 6725 ft Width 300 ft
Elevation 13307 ft Threshold 0 ft Heading 278
Airport Frequencies
Type APP Name LA PAZ APP Frequency 119.5 MHZ
Type GCCD Name GND Frequency 121.9 MHZ
Type INFO Name LA PAZ FIS Frequency 127.1 MHZ
Type RDO Name LA PAZ RDO Frequency 662.2 MHZ
Type TWR Name LA PAZ TWR Frequency 118.3 MHZ
Airport Navaids
Type NDB Name La Paz Frequency 350 KHZ
Type VOR-DME Name La Paz Frequency 115700 KHZ
Airport Weather Information & NOTAM
ADDS - METARS form results

(1433 UTC 22 February 2018)
 
METAR text: SLLP 221400Z 09009KT 060V120 6000 FEW008 SCT014 FEW017CB BKN070 09/05 Q1039
Conditions at: SLLP (LA PAZ/JFK INTL , BO) observed 1400 UTC 22 February 2018
Temperature: 9.0°C (48°F)
Dewpoint: 5.0°C (41°F) [RH = 76%]
Pressure (altimeter): 30.68 inches Hg (1039.0 mb)
Winds: from the E (90 degrees) at 10 MPH (9 knots; 4.7 m/s)
Visibility: 4 miles (6 km)
Ceiling: 7000 feet AGL
Clouds: few clouds at 800 feet AGL
scattered clouds at 1400 feet AGL
few clouds at 1700 feet AGL
broken clouds at 7000 feet AGL
Weather: no significant weather observed at this time